createdAt,value
2019-05-21T00:01:52.203Z,15.57
2019-05-21T00:04:28.273Z,15.55
2019-05-21T00:06:55.999Z,15.52
2019-05-21T00:09:27.042Z,15.49
2019-05-21T00:11:58.074Z,15.46
2019-05-21T00:14:29.057Z,15.34
2019-05-21T00:17:00.162Z,15.43
2019-05-21T00:19:31.185Z,15.36
2019-05-21T00:22:02.434Z,15.44
2019-05-21T00:24:33.482Z,15.49
2019-05-21T00:27:04.621Z,15.58
2019-05-21T00:30:31.275Z,15.49
2019-05-21T00:33:56.522Z,15.42
2019-05-21T00:37:22.381Z,15.25
2019-05-21T00:40:48.026Z,15.25
2019-05-21T00:43:21.287Z,15.25
2019-05-21T00:45:52.286Z,15.24
2019-05-21T00:48:23.328Z,15.28
2019-05-21T00:50:54.505Z,15.40
2019-05-21T00:53:25.694Z,15.45
2019-05-21T00:55:56.700Z,15.46
2019-05-21T00:58:27.992Z,15.47
2019-05-21T01:00:58.982Z,15.40
2019-05-21T01:03:29.999Z,15.35
2019-05-21T01:06:01.246Z,15.36
2019-05-21T01:08:32.473Z,15.37
2019-05-21T01:11:03.541Z,15.33
2019-05-21T01:13:36.619Z,15.21
2019-05-21T01:16:07.996Z,15.26
2019-05-21T01:18:39.064Z,15.22
2019-05-21T01:21:10.414Z,15.19
2019-05-21T01:23:41.561Z,15.16
2019-05-21T01:26:12.604Z,15.18
2019-05-21T01:28:43.674Z,15.15
2019-05-21T01:31:15.042Z,15.03
2019-05-21T01:33:46.307Z,14.98
2019-05-21T01:36:17.309Z,15.08
2019-05-21T01:38:48.527Z,15.07
2019-05-21T01:41:19.631Z,15.08
2019-05-21T01:43:52.038Z,15.00
2019-05-21T01:46:23.584Z,15.05
2019-05-21T01:48:54.591Z,15.12
2019-05-21T01:51:25.620Z,14.99
2019-05-21T01:53:56.618Z,15.07
2019-05-21T01:56:27.645Z,15.08
2019-05-21T01:58:58.802Z,15.03
2019-05-21T02:01:29.969Z,14.92
2019-05-21T02:04:01.047Z,15.01
2019-05-21T02:06:32.164Z,15.08
2019-05-21T02:09:04.784Z,15.14
2019-05-21T02:11:36.878Z,15.15
2019-05-21T02:14:07.993Z,15.12
2019-05-21T02:16:39.124Z,15.03
2019-05-21T02:19:10.164Z,15.04
2019-05-21T02:21:41.188Z,14.96
2019-05-21T02:24:12.193Z,14.97
2019-05-21T02:26:43.293Z,14.99
2019-05-21T02:29:14.357Z,15.02
2019-05-21T02:31:45.396Z,15.03
2019-05-21T02:34:16.418Z,15.01
2019-05-21T02:36:47.605Z,14.98
2019-05-21T02:39:19.000Z,14.98
2019-05-21T02:41:50.027Z,15.01
2019-05-21T02:44:21.017Z,14.90
2019-05-21T02:46:52.251Z,14.89
2019-05-21T02:49:23.228Z,14.89
2019-05-21T02:51:54.342Z,14.71
2019-05-21T02:54:40.154Z,14.80
2019-05-21T02:56:58.264Z,14.85
2019-05-21T02:59:29.327Z,14.92
2019-05-21T03:02:09.025Z,14.96
2019-05-21T03:04:40.030Z,14.88
2019-05-21T03:07:20.463Z,14.83
2019-05-21T03:09:51.862Z,14.74
2019-05-21T03:12:22.889Z,14.83
2019-05-21T03:14:54.015Z,14.95
2019-05-21T03:17:26.100Z,14.86
2019-05-21T03:19:57.264Z,14.70
2019-05-21T03:22:28.650Z,14.80
2019-05-21T03:25:02.426Z,14.72
2019-05-21T03:27:32.456Z,14.73
2019-05-21T03:30:03.541Z,14.75
2019-05-21T03:32:34.631Z,14.86
2019-05-21T03:35:07.706Z,14.88
2019-05-21T03:37:38.727Z,14.73
2019-05-21T03:40:11.346Z,14.76
2019-05-21T03:42:42.379Z,14.81
2019-05-21T03:45:14.331Z,14.77
2019-05-21T03:47:46.334Z,14.78
2019-05-21T03:50:17.877Z,14.76
2019-05-21T03:52:49.115Z,14.72
2019-05-21T03:55:20.121Z,14.76
2019-05-21T03:57:51.147Z,14.75
2019-05-21T04:00:23.089Z,14.81
2019-05-21T04:02:54.131Z,14.73
2019-05-21T04:05:27.023Z,14.74
2019-05-21T04:07:58.179Z,14.78
2019-05-21T04:10:29.184Z,14.68
2019-05-21T04:13:10.263Z,14.70
2019-05-21T04:15:52.238Z,14.63
2019-05-21T04:18:27.844Z,14.67
2019-05-21T04:20:58.866Z,14.74
2019-05-21T04:23:29.980Z,14.78
2019-05-21T04:26:00.978Z,14.80
2019-05-21T04:28:33.110Z,14.72
2019-05-21T04:31:04.183Z,14.70
2019-05-21T04:33:37.588Z,14.69
2019-05-21T04:36:08.666Z,14.76
2019-05-21T04:38:39.730Z,14.74
2019-05-21T04:41:10.748Z,14.71
2019-05-21T04:43:41.985Z,14.75
2019-05-21T04:46:13.031Z,14.63
2019-05-21T04:48:44.303Z,14.60
2019-05-21T04:51:15.347Z,14.70
2019-05-21T04:53:46.369Z,14.70
2019-05-21T04:56:17.490Z,14.82
2019-05-21T04:58:48.493Z,14.80
2019-05-21T05:01:19.606Z,14.65
2019-05-21T05:03:50.697Z,14.59
2019-05-21T05:06:22.093Z,14.73
2019-05-21T05:08:53.277Z,14.71
2019-05-21T05:11:24.342Z,14.57
2019-05-21T05:13:56.313Z,14.63
2019-05-21T05:16:27.543Z,14.61
2019-05-21T05:18:58.647Z,14.64
2019-05-21T05:21:29.871Z,14.61
2019-05-21T05:24:00.932Z,14.59
2019-05-21T05:26:31.969Z,14.66
2019-05-21T05:29:03.062Z,14.62
2019-05-21T05:31:34.147Z,14.70
2019-05-21T05:34:05.204Z,14.71
2019-05-21T05:36:37.357Z,14.66
2019-05-21T05:39:09.343Z,14.70
2019-05-21T05:41:40.804Z,14.75
2019-05-21T05:44:11.951Z,14.72
2019-05-21T05:46:43.002Z,14.71
2019-05-21T05:49:22.194Z,14.64
2019-05-21T05:51:53.396Z,14.69
2019-05-21T05:54:24.463Z,14.61
2019-05-21T05:56:55.534Z,14.65
2019-05-21T05:59:26.684Z,14.61
2019-05-21T06:01:57.809Z,14.56
2019-05-21T06:04:30.628Z,14.51
2019-05-21T06:07:01.758Z,14.55
2019-05-21T06:09:32.843Z,14.61
2019-05-21T06:12:03.975Z,14.54
2019-05-21T06:14:34.976Z,14.50
2019-05-21T06:17:07.411Z,14.49
2019-05-21T06:19:38.461Z,14.48
2019-05-21T06:22:09.464Z,14.42
2019-05-21T06:24:40.457Z,14.45
2019-05-21T06:27:11.563Z,14.49
2019-05-21T06:29:42.592Z,14.56
2019-05-21T06:32:13.687Z,14.50
2019-05-21T06:34:44.689Z,14.49
2019-05-21T06:37:15.715Z,14.51
2019-05-21T06:39:46.752Z,14.39
2019-05-21T06:42:17.929Z,14.36
2019-05-21T06:44:48.931Z,14.29
2019-05-21T06:47:20.036Z,14.25
2019-05-21T06:49:51.039Z,14.28
2019-05-21T06:52:22.115Z,14.35
2019-05-21T06:54:53.108Z,14.41
2019-05-21T06:57:24.132Z,14.34
2019-05-21T06:59:55.153Z,14.24
2019-05-21T07:02:26.433Z,14.35
2019-05-21T07:04:57.483Z,14.35
2019-05-21T07:07:28.508Z,14.29
2019-05-21T07:09:59.578Z,14.35
2019-05-21T07:12:31.662Z,14.34
2019-05-21T07:15:02.978Z,14.32
2019-05-21T07:17:34.254Z,14.15
2019-05-21T07:20:10.072Z,14.26
2019-05-21T07:22:41.141Z,14.26
2019-05-21T07:25:13.138Z,14.26
2019-05-21T07:27:44.203Z,14.27
2019-05-21T07:30:15.457Z,14.31
2019-05-21T07:32:46.581Z,14.19
2019-05-21T07:35:17.700Z,14.21
2019-05-21T07:37:48.724Z,14.21
2019-05-21T07:40:19.924Z,14.22
2019-05-21T07:42:50.941Z,14.26
2019-05-21T07:45:21.936Z,14.30
2019-05-21T07:47:52.971Z,14.30
2019-05-21T07:50:24.002Z,14.21
2019-05-21T07:52:55.031Z,14.23
2019-05-21T07:55:27.013Z,14.25
2019-05-21T07:57:58.166Z,14.27
2019-05-21T08:00:29.277Z,14.34
2019-05-21T08:03:00.408Z,14.31
2019-05-21T08:05:31.830Z,14.34
2019-05-21T08:08:03.108Z,14.43
2019-05-21T08:10:34.124Z,14.47
2019-05-21T08:13:05.239Z,14.58
2019-05-21T08:15:37.553Z,14.49
2019-05-21T08:18:08.721Z,14.50
2019-05-21T08:20:39.868Z,14.35
2019-05-21T08:23:10.893Z,14.32
2019-05-21T08:25:42.887Z,14.27
2019-05-21T08:28:13.913Z,14.35
2019-05-21T08:30:44.964Z,14.35
2019-05-21T08:33:16.004Z,14.43
2019-05-21T08:35:47.152Z,14.45
2019-05-21T08:38:18.186Z,14.55
2019-05-21T08:40:49.526Z,14.55
2019-05-21T08:43:22.209Z,14.55
2019-05-21T08:45:53.402Z,14.57
2019-05-21T08:48:24.589Z,14.52
2019-05-21T08:50:55.578Z,14.64
2019-05-21T08:53:26.928Z,14.73
2019-05-21T08:55:58.041Z,14.67
2019-05-21T08:58:29.172Z,14.71
2019-05-21T09:01:00.397Z,14.76
2019-05-21T09:03:31.509Z,14.74
2019-05-21T09:06:02.615Z,14.59
2019-05-21T09:08:33.609Z,14.60
2019-05-21T09:11:05.789Z,14.62
2019-05-21T09:13:37.902Z,14.58
2019-05-21T09:16:08.906Z,14.72
2019-05-21T09:18:40.028Z,14.60
2019-05-21T09:21:12.050Z,14.68
2019-05-21T09:23:43.140Z,14.75
2019-05-21T09:26:14.674Z,14.78
2019-05-21T09:28:45.822Z,14.77
2019-05-21T09:31:16.833Z,14.79
2019-05-21T09:33:47.881Z,14.66
2019-05-21T09:36:18.866Z,14.80
2019-05-21T09:38:50.056Z,14.82
2019-05-21T09:41:21.263Z,14.80
2019-05-21T09:43:52.325Z,14.74
2019-05-21T09:46:23.407Z,14.80
2019-05-21T09:48:56.200Z,14.88
2019-05-21T09:51:27.512Z,14.78
2019-05-21T09:53:58.661Z,14.76
2019-05-21T09:56:32.423Z,14.72
2019-05-21T09:59:14.889Z,14.82
2019-05-21T10:01:48.609Z,14.83
2019-05-21T10:04:19.680Z,14.81
2019-05-21T10:06:50.668Z,14.82
2019-05-21T10:09:21.720Z,14.84
2019-05-21T10:11:52.773Z,14.86
2019-05-21T10:14:23.820Z,14.86
2019-05-21T10:16:54.811Z,14.94
2019-05-21T10:19:27.071Z,15.01
2019-05-21T10:21:58.082Z,15.04
2019-05-21T10:24:29.232Z,15.04
2019-05-21T10:27:03.442Z,15.06
2019-05-21T10:29:33.394Z,15.01
2019-05-21T10:32:06.311Z,15.01
2019-05-21T10:34:38.118Z,15.02
2019-05-21T10:37:09.374Z,15.08
2019-05-21T10:39:40.498Z,15.17
2019-05-21T10:42:11.516Z,15.19
2019-05-21T10:44:42.573Z,15.14
2019-05-21T10:47:16.363Z,15.16
2019-05-21T10:49:46.488Z,15.17
2019-05-21T10:52:17.480Z,15.16
2019-05-21T10:54:48.548Z,15.11
2019-05-21T10:57:19.625Z,15.07
2019-05-21T10:59:50.658Z,15.10
2019-05-21T11:02:28.301Z,15.19
2019-05-21T11:05:33.777Z,15.20
2019-05-21T11:08:22.847Z,15.19
2019-05-21T11:10:38.391Z,15.20
2019-05-21T11:13:09.586Z,15.17
2019-05-21T11:15:41.164Z,15.16
2019-05-21T11:18:12.378Z,15.20
2019-05-21T11:20:43.920Z,15.12
2019-05-21T11:23:15.013Z,15.12
2019-05-21T11:25:46.055Z,15.06
2019-05-21T11:28:17.209Z,15.01
2019-05-21T11:30:48.308Z,15.03
2019-05-21T11:33:19.379Z,15.08
2019-05-21T11:35:50.553Z,15.04
2019-05-21T11:38:21.795Z,15.09
2019-05-21T11:40:53.091Z,15.04
2019-05-21T11:43:24.150Z,15.10
2019-05-21T11:45:55.331Z,15.16
2019-05-21T11:48:27.229Z,15.27
2019-05-21T11:50:58.252Z,15.26
2019-05-21T11:53:31.939Z,15.21
2019-05-21T11:56:02.053Z,15.22
2019-05-21T11:58:39.421Z,15.24
2019-05-21T12:01:06.055Z,15.21
2019-05-21T12:03:38.307Z,15.21
2019-05-21T12:06:09.725Z,15.24
2019-05-21T12:08:55.690Z,15.31
2019-05-21T12:11:13.821Z,15.26
2019-05-21T12:13:44.827Z,15.20
2019-05-21T12:16:16.183Z,15.22
2019-05-21T12:18:47.356Z,15.25
2019-05-21T12:21:18.469Z,15.34
2019-05-21T12:23:49.455Z,15.32
2019-05-21T12:26:20.566Z,15.22
2019-05-21T12:28:51.794Z,15.31
2019-05-21T12:31:23.998Z,15.30
2019-05-21T12:33:55.084Z,15.36
2019-05-21T12:36:27.738Z,15.28
2019-05-21T12:39:13.192Z,15.38
2019-05-21T12:41:33.299Z,15.22
2019-05-21T12:44:04.537Z,15.23
2019-05-21T12:46:35.651Z,15.25
2019-05-21T12:49:06.674Z,15.29
2019-05-21T12:51:38.594Z,15.30
2019-05-21T12:54:09.670Z,15.35
2019-05-21T12:56:41.889Z,15.36
2019-05-21T12:59:13.020Z,15.30
2019-05-21T13:01:44.039Z,15.29
2019-05-21T13:04:15.037Z,15.33
2019-05-21T13:06:46.075Z,15.40
2019-05-21T13:09:31.499Z,15.41
2019-05-21T13:11:50.032Z,15.35
2019-05-21T13:14:21.065Z,15.27
2019-05-21T13:16:52.153Z,15.37
2019-05-21T13:19:23.286Z,15.31
2019-05-21T13:21:54.549Z,15.32
2019-05-21T13:24:25.516Z,15.31
2019-05-21T13:26:56.637Z,15.31
2019-05-21T13:29:27.853Z,15.28
2019-05-21T13:31:58.900Z,15.38
2019-05-21T13:34:29.918Z,15.27
2019-05-21T13:37:00.959Z,15.25
2019-05-21T13:39:48.369Z,15.25
2019-05-21T13:42:05.061Z,15.21
2019-05-21T13:44:36.176Z,15.28
2019-05-21T13:47:09.041Z,15.21
2019-05-21T13:49:40.386Z,15.28
2019-05-21T13:52:11.749Z,15.23
2019-05-21T13:54:42.776Z,15.20
2019-05-21T13:57:14.144Z,15.25
2019-05-21T13:59:45.493Z,15.15
2019-05-21T14:02:17.793Z,15.19
2019-05-21T14:04:48.810Z,15.20
2019-05-21T14:07:20.958Z,15.16
2019-05-21T14:10:12.700Z,15.14
2019-05-21T14:12:24.992Z,15.10
2019-05-21T14:14:56.026Z,15.09
2019-05-21T14:17:27.975Z,15.13
2019-05-21T14:19:58.976Z,15.24
2019-05-21T14:22:30.118Z,15.12
2019-05-21T14:25:01.365Z,15.24
2019-05-21T14:27:43.899Z,15.12
2019-05-21T14:30:06.028Z,15.14
2019-05-21T14:32:37.276Z,15.15
2019-05-21T14:35:09.549Z,15.12
2019-05-21T14:37:41.027Z,15.16
2019-05-21T14:40:28.524Z,15.24
2019-05-21T14:42:59.200Z,15.25
2019-05-21T14:45:18.804Z,15.23
2019-05-21T14:47:49.940Z,15.25
2019-05-21T14:50:21.043Z,15.04
2019-05-21T14:52:52.530Z,15.15
2019-05-21T14:55:23.553Z,15.13
2019-05-21T14:57:54.887Z,15.10
2019-05-21T15:00:33.726Z,15.12
2019-05-21T15:03:04.910Z,15.10
2019-05-21T15:05:36.408Z,15.11
2019-05-21T15:08:08.800Z,15.12
2019-05-21T15:10:48.392Z,15.04
2019-05-21T15:13:12.570Z,15.06
2019-05-21T15:15:43.719Z,15.18
2019-05-21T15:18:21.147Z,15.12
2019-05-21T15:20:53.107Z,15.11
2019-05-21T15:23:24.214Z,15.07
2019-05-21T15:25:55.396Z,15.12
2019-05-21T15:28:26.772Z,15.15
2019-05-21T15:30:57.938Z,15.13
2019-05-21T15:33:29.128Z,15.15
2019-05-21T15:36:00.350Z,15.15
2019-05-21T15:38:48.787Z,15.14
2019-05-21T15:41:10.699Z,15.15
2019-05-21T15:43:37.278Z,15.19
2019-05-21T15:46:09.407Z,15.16
2019-05-21T15:48:40.445Z,14.99
2019-05-21T15:51:11.547Z,15.16
2019-05-21T15:53:42.605Z,15.14
2019-05-21T15:56:14.008Z,15.16
2019-05-21T15:58:45.452Z,15.18
2019-05-21T16:01:17.514Z,15.19
2019-05-21T16:03:48.551Z,15.15
2019-05-21T16:06:19.702Z,15.23
2019-05-21T16:08:50.808Z,15.25
2019-05-21T16:11:28.801Z,15.24
2019-05-21T16:13:54.945Z,15.28
2019-05-21T16:16:26.046Z,15.23
2019-05-21T16:18:57.232Z,15.24
2019-05-21T16:21:28.536Z,15.19
2019-05-21T16:23:59.569Z,15.15
2019-05-21T16:26:30.586Z,15.12
2019-05-21T16:29:01.637Z,15.13
2019-05-21T16:31:32.742Z,15.08
2019-05-21T16:34:04.252Z,15.13
2019-05-21T16:36:35.425Z,15.06
2019-05-21T16:39:09.309Z,15.11
2019-05-21T16:41:44.768Z,15.12
2019-05-21T16:44:13.496Z,15.07
2019-05-21T16:46:44.637Z,15.16
2019-05-21T16:49:15.748Z,15.12
2019-05-21T16:51:46.760Z,15.21
2019-05-21T16:54:17.813Z,15.13
2019-05-21T16:56:48.904Z,15.10
2019-05-21T16:59:20.131Z,15.14
2019-05-21T17:01:51.326Z,15.12
2019-05-21T17:04:22.416Z,15.18
2019-05-21T17:06:53.498Z,15.17
2019-05-21T17:09:28.131Z,15.08
2019-05-21T17:12:00.322Z,15.16
2019-05-21T17:14:30.454Z,15.18
2019-05-21T17:17:01.476Z,15.27
2019-05-21T17:19:32.713Z,15.28
2019-05-21T17:22:03.737Z,15.31
2019-05-21T17:24:34.762Z,15.15
2019-05-21T17:27:05.902Z,15.12
2019-05-21T17:29:36.891Z,15.21
2019-05-21T17:32:09.153Z,15.23
2019-05-21T17:34:40.196Z,15.26
2019-05-21T17:37:11.246Z,15.26
2019-05-21T17:39:42.253Z,15.26
2019-05-21T17:42:15.817Z,15.24
2019-05-21T17:44:46.509Z,15.17
2019-05-21T17:47:17.685Z,15.18
2019-05-21T17:49:48.756Z,15.16
2019-05-21T17:52:19.870Z,15.12
2019-05-21T17:54:56.827Z,15.14
2019-05-21T17:57:24.087Z,15.17
2019-05-21T17:59:55.243Z,15.23
2019-05-21T18:02:28.174Z,15.21
2019-05-21T18:04:59.672Z,15.20
2019-05-21T18:07:31.634Z,15.16
2019-05-21T18:10:02.752Z,15.07
2019-05-21T18:12:36.456Z,15.05
2019-05-21T18:15:10.187Z,15.01
2019-05-21T18:17:42.826Z,15.07
2019-05-21T18:20:15.834Z,15.01
2019-05-21T18:22:48.509Z,15.06
2019-05-21T18:25:19.664Z,14.96
2019-05-21T18:27:50.862Z,14.91
2019-05-21T18:30:24.354Z,14.98
2019-05-21T18:32:55.484Z,14.96
2019-05-21T18:35:26.567Z,14.92
2019-05-21T18:37:57.735Z,14.96
2019-05-21T18:40:28.948Z,14.95
2019-05-21T18:43:00.165Z,15.00
2019-05-21T18:45:31.321Z,15.00
2019-05-21T18:48:02.425Z,14.93
2019-05-21T18:50:36.635Z,14.98
2019-05-21T18:53:06.264Z,15.01
2019-05-21T18:55:37.414Z,15.06
2019-05-21T18:58:09.755Z,15.04
2019-05-21T19:00:40.789Z,15.00
2019-05-21T19:03:12.169Z,14.99
2019-05-21T19:05:43.256Z,14.95
2019-05-21T19:08:14.428Z,14.97
2019-05-21T19:10:45.769Z,15.03
2019-05-21T19:13:17.189Z,15.02
2019-05-21T19:15:48.447Z,15.03
2019-05-21T19:18:19.602Z,14.95
2019-05-21T19:20:50.896Z,14.94
2019-05-21T19:23:23.230Z,14.97
2019-05-21T19:25:54.408Z,14.97
2019-05-21T19:28:25.547Z,14.96
2019-05-21T19:30:57.811Z,14.99
2019-05-21T19:33:29.074Z,14.96
2019-05-21T19:36:00.213Z,14.96
2019-05-21T19:38:31.635Z,14.92
2019-05-21T19:41:02.807Z,14.97
2019-05-21T19:43:34.175Z,14.97
2019-05-21T19:46:05.384Z,14.99
2019-05-21T19:48:36.585Z,14.96
2019-05-21T19:51:07.783Z,15.02
2019-05-21T19:53:39.706Z,14.95
2019-05-21T19:56:11.829Z,14.94
2019-05-21T19:58:42.909Z,14.95
2019-05-21T20:01:14.030Z,14.98
2019-05-21T20:03:45.547Z,14.94
2019-05-21T20:06:18.468Z,14.98
2019-05-21T20:08:49.786Z,14.94
2019-05-21T20:11:21.205Z,14.92
2019-05-21T20:13:52.956Z,14.86
2019-05-21T20:16:24.895Z,14.87
2019-05-21T20:18:56.096Z,14.96
2019-05-21T20:21:27.851Z,14.92
2019-05-21T20:23:59.114Z,14.92
2019-05-21T20:26:33.251Z,14.96
2019-05-21T20:29:04.994Z,14.93
2019-05-21T20:31:36.039Z,14.98
2019-05-21T20:34:07.666Z,14.96
2019-05-21T20:36:40.905Z,15.00
2019-05-21T20:39:15.169Z,14.95
2019-05-21T20:41:47.446Z,15.02
2019-05-21T20:44:19.938Z,15.03
2019-05-21T20:46:51.726Z,14.97
2019-05-21T20:49:23.925Z,14.91
2019-05-21T20:51:55.328Z,14.89
2019-05-21T20:54:28.019Z,14.99
2019-05-21T20:56:59.227Z,14.97
2019-05-21T20:59:30.499Z,14.95
2019-05-21T21:02:05.692Z,14.93
2019-05-21T21:04:35.214Z,14.94
2019-05-21T21:07:07.418Z,14.97
2019-05-21T21:09:40.250Z,14.94
2019-05-21T21:12:11.644Z,14.90
2019-05-21T21:14:43.399Z,14.89
2019-05-21T21:17:16.351Z,14.92
2019-05-21T21:19:47.493Z,14.91
2019-05-21T21:22:18.611Z,14.76
2019-05-21T21:24:50.828Z,14.84
2019-05-21T21:27:23.104Z,14.92
2019-05-21T21:29:54.277Z,14.91
2019-05-21T21:32:25.570Z,14.91
2019-05-21T21:34:56.815Z,14.95
2019-05-21T21:37:29.148Z,14.92
2019-05-21T21:40:00.526Z,14.91
2019-05-21T21:42:32.400Z,14.95
2019-05-21T21:45:04.006Z,14.95
2019-05-21T21:47:35.458Z,14.88
2019-05-21T21:50:08.358Z,14.91
2019-05-21T21:52:39.900Z,14.93
2019-05-21T21:55:11.707Z,14.91
2019-05-21T21:57:42.846Z,14.90
2019-05-21T22:01:01.548Z,14.96
2019-05-21T22:03:35.681Z,14.95
2019-05-21T22:06:09.766Z,14.96
2019-05-21T22:08:40.978Z,14.93
2019-05-21T22:11:12.108Z,14.96
2019-05-21T22:13:43.275Z,14.99
2019-05-21T22:16:14.800Z,14.99
2019-05-21T22:18:46.129Z,14.92
2019-05-21T22:21:17.800Z,14.90
2019-05-21T22:23:50.461Z,14.90
2019-05-21T22:26:21.744Z,14.96
2019-05-21T22:28:52.821Z,14.86
2019-05-21T22:31:23.998Z,14.89
2019-05-21T22:33:55.108Z,14.95
2019-05-21T22:36:26.382Z,14.97
2019-05-21T22:38:57.544Z,14.96
2019-05-21T22:41:29.732Z,14.91
2019-05-21T22:44:00.813Z,15.01
2019-05-21T22:46:31.950Z,15.00
2019-05-21T22:49:02.978Z,15.00
2019-05-21T22:51:34.157Z,14.94
2019-05-21T22:54:05.327Z,14.93
2019-05-21T22:56:36.695Z,14.98
2019-05-21T22:59:07.782Z,15.03
2019-05-21T23:01:41.294Z,14.97
2019-05-21T23:04:12.551Z,14.96
2019-05-21T23:06:45.199Z,14.98
2019-05-21T23:09:16.295Z,14.91
2019-05-21T23:11:47.368Z,14.95
2019-05-21T23:14:18.487Z,14.91
2019-05-21T23:16:50.232Z,14.97
2019-05-21T23:19:26.538Z,15.03
2019-05-21T23:22:11.536Z,14.95
2019-05-21T23:24:42.663Z,14.95
2019-05-21T23:27:15.357Z,14.91
2019-05-21T23:29:46.426Z,14.90
2019-05-21T23:32:17.445Z,14.87
2019-05-21T23:34:49.402Z,14.95
2019-05-21T23:37:21.824Z,14.85
2019-05-21T23:39:54.864Z,14.93
2019-05-21T23:42:29.885Z,14.91
2019-05-21T23:44:59.281Z,14.97
2019-05-21T23:47:30.452Z,14.91
2019-05-21T23:50:01.455Z,14.89
2019-05-21T23:52:32.713Z,14.98
2019-05-21T23:55:03.893Z,14.87
2019-05-21T23:57:36.657Z,14.85
